createdAt,value
2017-04-14T00:00:32.940Z,1030.3
2017-04-14T00:01:32.928Z,1030.34
2017-04-14T00:02:32.918Z,1030.33
2017-04-14T00:03:32.908Z,1030.37
2017-04-14T00:04:32.897Z,1030.4
2017-04-14T00:05:32.885Z,1030.39
2017-04-14T00:06:32.874Z,1030.42
2017-04-14T00:07:32.864Z,1030.38
2017-04-14T00:08:32.854Z,1030.39
2017-04-14T00:09:32.841Z,1030.41
2017-04-14T00:10:32.831Z,1030.39
2017-04-14T00:11:32.821Z,1030.43
2017-04-14T00:12:32.808Z,1030.4
2017-04-14T00:13:32.798Z,1030.39
2017-04-14T00:14:32.787Z,1030.39
2017-04-14T00:15:32.776Z,1030.4
2017-04-14T00:16:32.765Z,1030.4
2017-04-14T00:17:32.754Z,1030.42
2017-04-14T00:18:32.744Z,1030.41
2017-04-14T00:19:32.732Z,1030.45
2017-04-14T00:20:32.720Z,1030.46
2017-04-14T00:21:32.709Z,1030.49
2017-04-14T00:22:32.699Z,1030.53
2017-04-14T00:23:32.687Z,1030.51
2017-04-14T00:24:32.677Z,1030.55
2017-04-14T00:25:32.665Z,1030.53
2017-04-14T00:26:32.654Z,1030.5
2017-04-14T00:27:32.643Z,1030.55
2017-04-14T00:28:32.632Z,1030.56
2017-04-14T00:29:32.623Z,1030.51
2017-04-14T00:30:32.610Z,1030.5
2017-04-14T00:31:32.599Z,1030.53
2017-04-14T00:32:32.588Z,1030.48
2017-04-14T00:33:32.577Z,1030.47
2017-04-14T00:34:32.565Z,1030.51
2017-04-14T00:35:32.554Z,1030.48
2017-04-14T00:36:32.542Z,1030.49
2017-04-14T00:37:32.531Z,1030.56
2017-04-14T00:38:32.519Z,1030.58
2017-04-14T00:39:32.508Z,1030.53
2017-04-14T00:40:32.498Z,1030.57
2017-04-14T00:41:32.486Z,1030.57
2017-04-14T00:42:32.475Z,1030.57
2017-04-14T00:43:32.463Z,1030.6
2017-04-14T00:44:32.452Z,1030.6
2017-04-14T00:45:32.439Z,1030.6
2017-04-14T00:46:32.429Z,1030.64
2017-04-14T00:47:32.418Z,1030.63
2017-04-14T00:48:32.408Z,1030.59
2017-04-14T00:49:32.395Z,1030.64
2017-04-14T00:50:32.384Z,1030.64
2017-04-14T00:51:32.373Z,1030.62
2017-04-14T00:52:32.361Z,1030.6
2017-04-14T00:53:32.351Z,1030.61
2017-04-14T00:54:32.339Z,1030.62
2017-04-14T00:55:32.328Z,1030.61
2017-04-14T00:56:32.315Z,1030.64
2017-04-14T00:57:32.305Z,1030.61
2017-04-14T00:58:32.293Z,1030.65
2017-04-14T00:59:32.282Z,1030.65
2017-04-14T01:00:32.269Z,1030.61
2017-04-14T01:01:32.259Z,1030.62
2017-04-14T01:02:32.247Z,1030.62
2017-04-14T01:03:32.236Z,1030.57
2017-04-14T01:04:32.224Z,1030.59
2017-04-14T01:05:32.219Z,1030.57
2017-04-14T01:06:32.202Z,1030.58
2017-04-14T01:07:32.189Z,1030.56
2017-04-14T01:08:32.179Z,1030.55
2017-04-14T01:09:32.167Z,1030.58
2017-04-14T01:10:32.155Z,1030.53
2017-04-14T01:11:32.144Z,1030.57
2017-04-14T01:12:32.133Z,1030.58
2017-04-14T01:13:32.121Z,1030.56
2017-04-14T01:14:32.109Z,1030.6
2017-04-14T01:15:32.098Z,1030.6
2017-04-14T01:16:32.086Z,1030.55
2017-04-14T01:18:32.063Z,1030.53
2017-04-14T01:19:32.051Z,1030.57
2017-04-14T01:20:32.040Z,1030.59
2017-04-14T01:21:32.028Z,1030.56
2017-04-14T01:22:32.015Z,1030.59
2017-04-14T01:23:32.005Z,1030.6
2017-04-14T01:24:31.994Z,1030.64
2017-04-14T01:25:31.982Z,1030.67
2017-04-14T01:26:31.969Z,1030.68
2017-04-14T01:27:31.959Z,1030.68
2017-04-14T01:28:31.947Z,1030.64
2017-04-14T01:29:31.935Z,1030.66
2017-04-14T01:30:31.924Z,1030.62
2017-04-14T01:31:31.911Z,1030.67
2017-04-14T01:32:31.900Z,1030.63
2017-04-14T01:33:31.889Z,1030.65
2017-04-14T01:34:31.876Z,1030.63
2017-04-14T01:35:31.865Z,1030.69
2017-04-14T01:36:31.852Z,1030.7
2017-04-14T01:37:31.841Z,1030.73
2017-04-14T01:38:31.830Z,1030.72
2017-04-14T01:39:31.818Z,1030.75
2017-04-14T01:40:31.806Z,1030.74
2017-04-14T01:41:31.795Z,1030.74
2017-04-14T01:42:31.784Z,1030.77
2017-04-14T01:43:31.772Z,1030.79
2017-04-14T01:44:31.759Z,1030.75
2017-04-14T01:45:31.747Z,1030.82
2017-04-14T01:46:31.737Z,1030.76
2017-04-14T01:47:31.723Z,1030.73
2017-04-14T01:48:31.711Z,1030.82
2017-04-14T01:49:31.700Z,1030.82
2017-04-14T01:50:31.688Z,1030.82
2017-04-14T01:51:31.677Z,1030.75
2017-04-14T01:52:31.665Z,1030.76
2017-04-14T01:53:31.653Z,1030.78
2017-04-14T01:54:31.642Z,1030.78
2017-04-14T01:55:31.628Z,1030.8
2017-04-14T01:56:31.617Z,1030.76
2017-04-14T01:57:31.606Z,1030.81
2017-04-14T01:58:31.592Z,1030.79
2017-04-14T01:59:31.581Z,1030.79
2017-04-14T02:00:31.574Z,1030.82
2017-04-14T02:01:31.558Z,1030.82
2017-04-14T02:02:31.545Z,1030.88
2017-04-14T02:03:31.533Z,1030.9
2017-04-14T02:04:31.523Z,1030.85
2017-04-14T02:05:31.510Z,1030.87
2017-04-14T02:06:31.499Z,1030.87
2017-04-14T02:07:31.487Z,1030.91
2017-04-14T02:08:31.475Z,1030.88
2017-04-14T02:09:31.463Z,1030.93
2017-04-14T02:10:31.450Z,1030.93
2017-04-14T02:11:31.439Z,1030.92
2017-04-14T02:12:31.428Z,1030.96
2017-04-14T02:13:31.415Z,1030.93
2017-04-14T02:14:31.406Z,1030.9
2017-04-14T02:15:31.391Z,1030.97
2017-04-14T02:16:31.379Z,1030.96
2017-04-14T02:17:31.367Z,1030.88
2017-04-14T02:18:31.355Z,1030.95
2017-04-14T02:19:31.344Z,1030.91
2017-04-14T02:20:31.331Z,1030.96
2017-04-14T02:21:31.319Z,1030.94
2017-04-14T02:22:31.308Z,1030.96
2017-04-14T02:23:31.295Z,1030.96
2017-04-14T02:24:31.283Z,1031
2017-04-14T02:25:31.271Z,1030.98
2017-04-14T02:26:31.259Z,1031.01
2017-04-14T02:27:31.247Z,1030.96
2017-04-14T02:28:31.234Z,1030.98
2017-04-14T02:29:31.223Z,1031
2017-04-14T02:30:31.211Z,1030.99
2017-04-14T02:31:31.199Z,1031
2017-04-14T02:32:31.187Z,1031.03
2017-04-14T02:33:31.175Z,1031
2017-04-14T02:34:31.163Z,1031
2017-04-14T02:35:31.150Z,1030.95
2017-04-14T02:36:31.138Z,1031.02
2017-04-14T02:37:31.127Z,1031.01
2017-04-14T02:38:31.117Z,1031.01
2017-04-14T02:39:31.101Z,1031.04
2017-04-14T02:40:31.090Z,1031.03
2017-04-14T02:41:31.077Z,1031.03
2017-04-14T02:42:31.065Z,1031.02
2017-04-14T02:43:31.053Z,1031.03
2017-04-14T02:44:31.041Z,1031.09
2017-04-14T02:45:31.029Z,1031.08
2017-04-14T02:46:31.016Z,1031.11
2017-04-14T02:47:31.004Z,1031.13
2017-04-14T02:48:30.993Z,1031.17
2017-04-14T02:49:30.979Z,1031.14
2017-04-14T02:50:30.967Z,1031.17
2017-04-14T02:51:30.955Z,1031.18
2017-04-14T02:52:30.943Z,1031.2
2017-04-14T02:53:30.930Z,1031.2
2017-04-14T02:54:30.919Z,1031.24
2017-04-14T02:55:30.906Z,1031.26
2017-04-14T02:56:30.894Z,1031.25
2017-04-14T02:57:30.882Z,1031.27
2017-04-14T02:58:30.869Z,1031.28
2017-04-14T02:59:30.856Z,1031.26
2017-04-14T03:00:30.844Z,1031.26
2017-04-14T03:01:30.831Z,1031.29
2017-04-14T03:02:30.819Z,1031.21
2017-04-14T03:03:30.808Z,1031.25
2017-04-14T03:04:30.793Z,1031.2
2017-04-14T03:05:30.782Z,1031.25
2017-04-14T03:06:30.770Z,1031.19
2017-04-14T03:07:30.758Z,1031.22
2017-04-14T03:08:30.745Z,1031.18
2017-04-14T03:09:30.732Z,1031.24
2017-04-14T03:10:30.720Z,1031.24
2017-04-14T03:11:30.707Z,1031.23
2017-04-14T03:12:30.694Z,1031.23
2017-04-14T03:13:30.683Z,1031.24
2017-04-14T03:14:30.670Z,1031.23
2017-04-14T03:15:30.657Z,1031.25
2017-04-14T03:16:30.644Z,1031.27
2017-04-14T03:17:30.633Z,1031.29
2017-04-14T03:18:30.620Z,1031.23
2017-04-14T03:19:30.607Z,1031.29
2017-04-14T03:20:30.595Z,1031.3
2017-04-14T03:21:30.583Z,1031.35
2017-04-14T03:22:30.569Z,1031.36
2017-04-14T03:23:30.557Z,1031.37
2017-04-14T03:24:30.545Z,1031.34
2017-04-14T03:25:30.532Z,1031.35
2017-04-14T03:26:30.519Z,1031.38
2017-04-14T03:27:30.508Z,1031.38
2017-04-14T03:28:30.495Z,1031.36
2017-04-14T03:29:30.482Z,1031.33
2017-04-14T03:30:30.469Z,1031.35
2017-04-14T03:31:30.456Z,1031.33
2017-04-14T03:32:30.444Z,1031.31
2017-04-14T03:33:30.431Z,1031.32
2017-04-14T03:34:30.418Z,1031.35
2017-04-14T03:35:30.446Z,1031.35
2017-04-14T03:36:30.394Z,1031.37
2017-04-14T03:37:30.382Z,1031.39
2017-04-14T03:38:30.368Z,1031.39
2017-04-14T03:39:30.355Z,1031.42
2017-04-14T03:40:30.344Z,1031.47
2017-04-14T03:41:30.331Z,1031.48
2017-04-14T03:42:30.319Z,1031.49
2017-04-14T03:43:30.307Z,1031.49
2017-04-14T03:44:30.293Z,1031.49
2017-04-14T03:45:30.280Z,1031.51
2017-04-14T03:46:30.268Z,1031.5
2017-04-14T03:47:30.256Z,1031.47
2017-04-14T03:48:30.242Z,1031.5
2017-04-14T03:49:30.230Z,1031.48
2017-04-14T03:50:30.217Z,1031.49
2017-04-14T03:51:30.204Z,1031.52
2017-04-14T03:52:30.192Z,1031.48
2017-04-14T03:53:30.179Z,1031.49
2017-04-14T03:54:30.167Z,1031.54
2017-04-14T03:55:30.153Z,1031.55
2017-04-14T03:56:30.141Z,1031.56
2017-04-14T03:57:30.129Z,1031.55
2017-04-14T03:58:30.116Z,1031.56
2017-04-14T03:59:30.103Z,1031.56
2017-04-14T04:00:30.090Z,1031.56
2017-04-14T04:01:30.077Z,1031.55
2017-04-14T04:02:30.064Z,1031.53
2017-04-14T04:03:30.051Z,1031.57
2017-04-14T04:04:30.039Z,1031.59
2017-04-14T04:06:30.013Z,1031.6
2017-04-14T04:07:30.001Z,1031.61
2017-04-14T04:08:30.001Z,1031.6
2017-04-14T04:09:29.976Z,1031.58
2017-04-14T04:10:29.967Z,1031.53
2017-04-14T04:11:29.950Z,1031.53
2017-04-14T04:12:29.938Z,1031.56
2017-04-14T04:13:29.924Z,1031.55
2017-04-14T04:14:29.911Z,1031.5
2017-04-14T04:15:29.900Z,1031.54
2017-04-14T04:16:29.886Z,1031.51
2017-04-14T04:17:29.873Z,1031.5
2017-04-14T04:18:29.863Z,1031.49
2017-04-14T04:19:29.848Z,1031.49
2017-04-14T04:20:29.836Z,1031.45
2017-04-14T04:21:29.821Z,1031.45
2017-04-14T04:22:29.810Z,1031.41
2017-04-14T04:23:29.798Z,1031.4
2017-04-14T04:24:29.787Z,1031.39
2017-04-14T04:25:29.772Z,1031.4
2017-04-14T04:26:29.759Z,1031.39
2017-04-14T04:27:29.746Z,1031.36
2017-04-14T04:28:29.735Z,1031.37
2017-04-14T04:29:29.722Z,1031.36
2017-04-14T04:30:29.709Z,1031.35
2017-04-14T04:31:29.697Z,1031.34
2017-04-14T04:32:29.685Z,1031.3
2017-04-14T04:33:29.671Z,1031.33
2017-04-14T04:34:29.660Z,1031.29
2017-04-14T04:35:29.646Z,1031.28
2017-04-14T04:36:29.634Z,1031.25
2017-04-14T04:37:29.622Z,1031.23
2017-04-14T04:38:29.610Z,1031.2
2017-04-14T04:39:29.597Z,1031.16
2017-04-14T04:40:29.585Z,1031.09
2017-04-14T04:41:29.573Z,1031.08
2017-04-14T04:42:29.561Z,1031.09
2017-04-14T04:43:29.548Z,1031.09
2017-04-14T04:44:29.537Z,1031.03
2017-04-14T04:45:29.524Z,1030.94
2017-04-14T04:46:29.511Z,1030.9
2017-04-14T04:47:29.499Z,1030.72
2017-04-14T04:48:29.487Z,1030.47
2017-04-14T04:49:29.476Z,1030.24
2017-04-14T04:50:29.463Z,1030.06
2017-04-14T04:51:29.451Z,1029.89
2017-04-14T04:52:29.441Z,1029.77
2017-04-14T04:53:29.428Z,1029.53
2017-04-14T04:54:29.417Z,1029.33
2017-04-14T04:55:29.406Z,1029.21
2017-04-14T04:56:29.394Z,1029.16
2017-04-14T04:57:29.383Z,1029.34
2017-04-14T04:58:29.372Z,1029.41
2017-04-14T04:59:29.361Z,1029.52
2017-04-14T05:00:29.351Z,1029.55
2017-04-14T05:01:29.339Z,1029.58
2017-04-14T05:02:29.330Z,1029.61
2017-04-14T05:03:29.320Z,1029.6
2017-04-14T05:04:29.310Z,1029.56
2017-04-14T05:05:29.298Z,1029.52
2017-04-14T05:06:29.287Z,1029.45
2017-04-14T05:07:29.277Z,1029.38
2017-04-14T05:08:29.266Z,1029.35
2017-04-14T05:09:29.261Z,1029.34
2017-04-14T05:10:29.246Z,1029.32
2017-04-14T05:11:29.236Z,1029.34
2017-04-14T05:12:29.226Z,1029.29
2017-04-14T05:13:29.217Z,1029.25
2017-04-14T05:14:29.206Z,1029.23
2017-04-14T05:15:29.197Z,1029.25
2017-04-14T05:16:29.187Z,1029.27
2017-04-14T05:17:29.177Z,1029.25
2017-04-14T05:18:29.167Z,1029.23
2017-04-14T05:19:29.158Z,1029.24
2017-04-14T05:20:29.147Z,1029.21
2017-04-14T05:21:29.138Z,1029.22
2017-04-14T05:22:29.129Z,1029.14
2017-04-14T05:23:29.118Z,1029.14
2017-04-14T05:24:29.109Z,1029.06
2017-04-14T05:25:29.099Z,1029.05
2017-04-14T05:26:29.089Z,1029.03
2017-04-14T05:27:29.079Z,1029.05
2017-04-14T05:28:29.070Z,1029
2017-04-14T05:29:29.061Z,1029.03
2017-04-14T05:30:29.051Z,1029.03
2017-04-14T05:31:29.041Z,1029.05
2017-04-14T05:32:29.031Z,1029.09
2017-04-14T05:33:29.023Z,1029.13
2017-04-14T05:34:29.013Z,1029.14
2017-04-14T05:35:29.004Z,1029.15
2017-04-14T05:36:28.994Z,1029.11
2017-04-14T05:37:28.985Z,1029
2017-04-14T05:38:28.976Z,1029.01
2017-04-14T05:39:28.965Z,1028.93
2017-04-14T05:40:28.957Z,1028.82
2017-04-14T05:41:28.948Z,1028.72
2017-04-14T05:42:28.938Z,1028.69
2017-04-14T05:43:28.930Z,1028.76
2017-04-14T05:44:28.921Z,1028.82
2017-04-14T05:45:28.911Z,1028.87
2017-04-14T05:46:28.902Z,1028.92
2017-04-14T05:47:28.893Z,1028.92
2017-04-14T05:48:28.884Z,1028.62
2017-04-14T05:49:28.875Z,1028.25
2017-04-14T05:50:28.867Z,1028.2
2017-04-14T05:51:28.859Z,1028.14
2017-04-14T05:52:28.849Z,1028.21
2017-04-14T05:53:28.842Z,1028.1
2017-04-14T05:54:28.833Z,1028.03
2017-04-14T05:55:28.824Z,1028.02
2017-04-14T05:56:28.815Z,1027.91
2017-04-14T05:57:28.808Z,1027.88
2017-04-14T05:58:28.800Z,1027.73
2017-04-14T05:59:28.791Z,1027.63
2017-04-14T06:00:28.783Z,1027.58
2017-04-14T06:01:28.775Z,1027.55
2017-04-14T06:02:28.768Z,1027.46
2017-04-14T06:03:28.760Z,1027.2
2017-04-14T06:04:28.753Z,1026.88
2017-04-14T06:05:28.749Z,1026.45
2017-04-14T06:06:28.740Z,1026.05
2017-04-14T06:07:28.732Z,1025.76
2017-04-14T06:08:28.724Z,1025.46
2017-04-14T06:09:28.718Z,1025.1
2017-04-14T06:10:28.711Z,1024.58
2017-04-14T06:11:28.705Z,1024.53
2017-04-14T06:12:28.700Z,1024.29
2017-04-14T06:13:28.694Z,1024.11
2017-04-14T06:14:28.688Z,1023.99
2017-04-14T06:15:28.684Z,1023.82
2017-04-14T06:16:28.680Z,1023.6
2017-04-14T06:17:28.675Z,1023.49
2017-04-14T06:18:28.670Z,1023.32
2017-04-14T06:19:28.668Z,1023.03
2017-04-14T06:20:28.664Z,1023.05
2017-04-14T06:21:28.665Z,1022.89
2017-04-14T06:22:28.657Z,1022.79
2017-04-14T06:23:28.654Z,1022.73
2017-04-14T06:24:28.653Z,1022.66
2017-04-14T06:25:28.649Z,1022.43
2017-04-14T06:26:28.647Z,1022.24
2017-04-14T06:27:28.646Z,1022.11
2017-04-14T06:28:28.645Z,1022.06
2017-04-14T06:29:28.642Z,1021.97
2017-04-14T06:30:28.642Z,1021.59
2017-04-14T06:31:28.641Z,1022.26
2017-04-14T06:32:28.639Z,1022.12
2017-04-14T06:33:28.640Z,1022.1
2017-04-14T06:34:28.640Z,1022.06
2017-04-14T06:35:28.641Z,1021.78
2017-04-14T06:36:28.640Z,1022
2017-04-14T06:37:28.689Z,1022.3
2017-04-14T06:38:28.642Z,1022.53
2017-04-14T06:39:28.643Z,1022.37
2017-04-14T06:40:28.644Z,1022.18
2017-04-14T06:41:28.645Z,1022.08
2017-04-14T06:42:28.646Z,1022.59
2017-04-14T06:43:28.647Z,1021.98
2017-04-14T06:44:28.648Z,1022.12
2017-04-14T06:45:28.650Z,1022.66
2017-04-14T06:46:28.651Z,1022.06
2017-04-14T06:47:28.654Z,1022.35
2017-04-14T06:48:28.654Z,1021.77
2017-04-14T06:49:28.656Z,1021.46
2017-04-14T06:50:28.659Z,1021.93
2017-04-14T06:51:28.660Z,1022.46
2017-04-14T06:52:28.662Z,1022.01
2017-04-14T06:53:28.665Z,1021.71
2017-04-14T06:54:28.666Z,1021.55
2017-04-14T06:55:28.669Z,1021.34
2017-04-14T06:56:28.671Z,1021.17
2017-04-14T06:57:28.674Z,1021.11
2017-04-14T06:58:28.675Z,1021.02
2017-04-14T06:59:28.680Z,1020.86
2017-04-14T07:00:28.682Z,1020.7
2017-04-14T07:01:28.685Z,1021.34
2017-04-14T07:02:28.688Z,1021.1
2017-04-14T07:03:28.692Z,1021.04
2017-04-14T07:04:28.696Z,1020.93
2017-04-14T07:05:28.698Z,1020.63
2017-04-14T07:06:28.702Z,1020.61
2017-04-14T07:07:28.708Z,1020.56
2017-04-14T07:08:28.712Z,1020.28
2017-04-14T07:09:28.715Z,1020.1
2017-04-14T07:10:28.720Z,1020.07
2017-04-14T07:11:28.725Z,1019.88
2017-04-14T07:12:28.730Z,1019.82
2017-04-14T07:13:28.735Z,1020.26
2017-04-14T07:14:28.741Z,1020.06
2017-04-14T07:15:28.747Z,1020.83
2017-04-14T07:16:28.751Z,1020.62
2017-04-14T07:17:28.757Z,1020.32
2017-04-14T07:18:28.763Z,1020.2
2017-04-14T07:19:28.769Z,1020.03
2017-04-14T07:20:28.774Z,1020.25
2017-04-14T07:21:28.780Z,1020.86
2017-04-14T07:22:28.786Z,1020.45
2017-04-14T07:23:28.791Z,1019.91
2017-04-14T07:24:28.797Z,1020.84
2017-04-14T07:25:28.804Z,1021.73
2017-04-14T07:26:28.810Z,1021.94
2017-04-14T07:27:28.814Z,1021.66
2017-04-14T07:28:28.820Z,1022.04
2017-04-14T07:29:28.829Z,1021.59
2017-04-14T07:30:28.831Z,1021.02
2017-04-14T07:31:28.836Z,1021.75
2017-04-14T07:32:28.842Z,1022.14
2017-04-14T07:33:28.847Z,1022.93
2017-04-14T07:34:28.851Z,1022.05
2017-04-14T07:35:28.856Z,1022.68
2017-04-14T07:36:28.861Z,1022.7
2017-04-14T07:37:28.866Z,1022.06
2017-04-14T07:38:28.871Z,1022.32
2017-04-14T07:39:28.875Z,1022.25
2017-04-14T07:40:28.880Z,1022.7
2017-04-14T07:41:28.884Z,1023.25
2017-04-14T07:42:28.886Z,1023.74
2017-04-14T07:43:28.893Z,1023.99
2017-04-14T07:44:28.895Z,1023.72
2017-04-14T07:45:28.898Z,1022.96
2017-04-14T07:46:28.901Z,1022.53
2017-04-14T07:47:28.904Z,1022.81
2017-04-14T07:48:28.908Z,1022.83
2017-04-14T07:49:28.910Z,1022.34
2017-04-14T07:50:28.914Z,1021.9
2017-04-14T07:51:28.918Z,1020.98
2017-04-14T07:52:28.922Z,1020.4
2017-04-14T07:53:28.924Z,1020.21
2017-04-14T07:54:28.929Z,1021.44
2017-04-14T07:55:28.933Z,1020.9
2017-04-14T07:56:28.936Z,1021.76
2017-04-14T07:57:28.939Z,1021.37
2017-04-14T07:58:28.945Z,1020.79
2017-04-14T07:59:28.949Z,1020.77
2017-04-14T08:00:28.955Z,1020.8
2017-04-14T08:01:28.957Z,1021.3
2017-04-14T08:02:28.962Z,1021.47
2017-04-14T08:03:28.967Z,1021.25
2017-04-14T08:04:28.970Z,1021.65
2017-04-14T08:05:28.974Z,1022.47
2017-04-14T08:06:28.979Z,1023.31
2017-04-14T08:07:28.982Z,1023.63
2017-04-14T08:08:28.988Z,1023.41
2017-04-14T08:09:28.990Z,1023.12
2017-04-14T08:10:28.993Z,1023.5
2017-04-14T08:11:28.996Z,1023.51
2017-04-14T08:12:28.999Z,1023.15
2017-04-14T08:13:29.002Z,1022.85
2017-04-14T08:14:29.006Z,1022.77
2017-04-14T08:15:29.008Z,1022.65
2017-04-14T08:16:29.012Z,1022.51
2017-04-14T08:17:29.016Z,1022.5
2017-04-14T08:18:29.018Z,1023.04
2017-04-14T08:19:29.020Z,1023.34
2017-04-14T08:20:29.024Z,1023.21
2017-04-14T08:21:29.026Z,1023.13
2017-04-14T08:22:29.028Z,1023.5
2017-04-14T08:23:29.031Z,1023.69
2017-04-14T08:24:29.033Z,1023.98
2017-04-14T08:25:29.036Z,1024.26
2017-04-14T08:26:29.038Z,1024.46
2017-04-14T08:27:29.041Z,1024.43
2017-04-14T08:28:29.044Z,1024.53
2017-04-14T08:29:29.044Z,1024.69
2017-04-14T08:30:29.047Z,1024.78
2017-04-14T08:31:29.048Z,1024.92
2017-04-14T08:32:29.049Z,1024.99
2017-04-14T08:33:29.049Z,1024.92
2017-04-14T08:34:29.050Z,1024.99
2017-04-14T08:35:29.051Z,1025.1
2017-04-14T08:36:29.051Z,1025.39
2017-04-14T08:37:29.055Z,1025.66
2017-04-14T08:38:29.053Z,1025.84
2017-04-14T08:39:29.052Z,1025.92
2017-04-14T08:40:29.052Z,1025.92
2017-04-14T08:41:29.052Z,1025.96
2017-04-14T08:42:29.052Z,1025.79
2017-04-14T08:43:29.052Z,1025.86
2017-04-14T08:44:29.050Z,1025.98
2017-04-14T08:45:29.050Z,1026.12
2017-04-14T08:46:29.049Z,1026.18
2017-04-14T08:47:29.048Z,1026.29
2017-04-14T08:48:29.047Z,1026.26
2017-04-14T08:49:29.047Z,1026.13
2017-04-14T08:50:29.045Z,1026.14
2017-04-14T08:51:29.043Z,1026.24
2017-04-14T08:52:29.045Z,1026.47
2017-04-14T08:53:29.041Z,1026.66
2017-04-14T08:54:29.041Z,1026.78
2017-04-14T08:55:29.039Z,1026.87
2017-04-14T08:56:29.037Z,1026.9
2017-04-14T08:57:29.035Z,1026.84
2017-04-14T08:58:29.032Z,1026.89
2017-04-14T08:59:29.032Z,1026.84
2017-04-14T09:00:29.030Z,1026.83
2017-04-14T09:01:29.028Z,1026.77
2017-04-14T09:02:29.025Z,1026.93
2017-04-14T09:03:29.023Z,1027.1
2017-04-14T09:04:29.024Z,1027.31
2017-04-14T09:05:29.019Z,1027.45
2017-04-14T09:06:29.016Z,1027.33
2017-04-14T09:07:29.014Z,1027.23
2017-04-14T09:08:29.012Z,1027.13
2017-04-14T09:09:29.009Z,1027.09
2017-04-14T09:10:29.007Z,1027.05
2017-04-14T09:11:29.005Z,1026.9
2017-04-14T09:12:29.002Z,1026.81
2017-04-14T09:13:28.999Z,1026.7
2017-04-14T09:14:28.997Z,1026.64
2017-04-14T09:15:28.995Z,1026.55
2017-04-14T09:16:28.992Z,1026.56
2017-04-14T09:17:28.988Z,1026.57
2017-04-14T09:18:28.987Z,1026.65
2017-04-14T09:19:28.985Z,1026.81
2017-04-14T09:20:28.981Z,1026.91
2017-04-14T09:21:28.978Z,1026.93
2017-04-14T09:22:28.976Z,1027.1
2017-04-14T09:23:28.974Z,1027.13
2017-04-14T09:24:28.971Z,1027.03
2017-04-14T09:25:28.969Z,1026.8
2017-04-14T09:26:28.967Z,1026.74
2017-04-14T09:27:28.964Z,1026.77
2017-04-14T09:28:28.961Z,1026.74
2017-04-14T09:29:28.958Z,1026.66
2017-04-14T09:30:28.956Z,1026.55
2017-04-14T09:31:28.953Z,1026.51
2017-04-14T09:32:28.951Z,1026.55
2017-04-14T09:33:28.952Z,1026.5
2017-04-14T09:34:28.946Z,1026.3
2017-04-14T09:35:28.943Z,1026.11
2017-04-14T09:36:28.941Z,1026.06
2017-04-14T09:37:28.939Z,1026.14
2017-04-14T09:38:28.937Z,1026.26
2017-04-14T09:39:28.934Z,1026.36
2017-04-14T09:40:28.932Z,1026.54
2017-04-14T09:41:28.929Z,1026.73
2017-04-14T09:42:28.932Z,1026.89
2017-04-14T09:43:28.924Z,1026.96
2017-04-14T09:44:28.922Z,1027.08
2017-04-14T09:45:28.920Z,1027.16
2017-04-14T09:46:28.917Z,1027.3
2017-04-14T09:47:28.915Z,1027.23
2017-04-14T09:48:28.912Z,1027.39
2017-04-14T09:49:28.910Z,1027.36
2017-04-14T09:50:28.907Z,1027.39
2017-04-14T09:51:28.904Z,1027.4
2017-04-14T09:52:28.900Z,1027.38
2017-04-14T09:53:28.897Z,1027.43
2017-04-14T09:54:28.894Z,1027.42
2017-04-14T09:55:28.892Z,1027.43
2017-04-14T09:56:28.889Z,1027.45
2017-04-14T09:57:29.694Z,1027.46
2017-04-14T09:58:28.883Z,1027.4
2017-04-14T09:59:28.879Z,1027.4
2017-04-14T10:00:28.877Z,1027.4
2017-04-14T10:01:28.874Z,1027.42
2017-04-14T10:02:28.870Z,1027.39
2017-04-14T10:03:28.868Z,1027.34
2017-04-14T10:04:28.866Z,1027.26
2017-04-14T10:05:28.861Z,1027.26
2017-04-14T10:06:28.857Z,1027.29
2017-04-14T10:07:28.855Z,1027.29
2017-04-14T10:08:28.850Z,1027.26
2017-04-14T10:09:28.847Z,1027.24
2017-04-14T10:10:28.844Z,1027.22
2017-04-14T10:11:28.840Z,1027.25
2017-04-14T10:12:28.837Z,1027.31
2017-04-14T10:13:28.834Z,1027.21
2017-04-14T10:14:28.831Z,1027.23
2017-04-14T10:15:28.827Z,1027.1
2017-04-14T10:16:28.823Z,1027.22
2017-04-14T10:17:28.820Z,1027.14
2017-04-14T10:18:28.817Z,1027.14
2017-04-14T10:19:28.814Z,1027.09
2017-04-14T10:20:28.811Z,1027.08
2017-04-14T10:21:28.808Z,1027.03
2017-04-14T10:22:28.804Z,1027.01
2017-04-14T10:23:28.801Z,1027.12
2017-04-14T10:24:28.798Z,1026.95
2017-04-14T10:25:28.795Z,1026.97
2017-04-14T10:26:28.791Z,1027.02
2017-04-14T10:27:28.789Z,1027.12
2017-04-14T10:28:28.786Z,1027.06
2017-04-14T10:29:28.784Z,1027.1
2017-04-14T10:30:28.778Z,1027.11
2017-04-14T10:31:28.775Z,1027.03
2017-04-14T10:32:28.773Z,1027
2017-04-14T10:33:28.769Z,1027.03
2017-04-14T10:34:28.766Z,1027.01
2017-04-14T10:35:28.763Z,1026.98
2017-04-14T10:36:28.760Z,1026.94
2017-04-14T10:37:28.757Z,1026.82
2017-04-14T10:38:28.754Z,1026.67
2017-04-14T10:39:28.752Z,1026.6
2017-04-14T10:40:28.748Z,1026.43
2017-04-14T10:41:28.745Z,1026.26
2017-04-14T10:42:28.742Z,1026.16
2017-04-14T10:43:28.740Z,1026.08
2017-04-14T10:44:28.737Z,1026.02
2017-04-14T10:45:28.736Z,1025.91
2017-04-14T10:46:28.732Z,1025.69
2017-04-14T10:47:28.730Z,1025.69
2017-04-14T10:48:28.726Z,1025.75
2017-04-14T10:49:28.724Z,1025.88
2017-04-14T10:50:28.723Z,1026
2017-04-14T10:51:28.722Z,1026.11
2017-04-14T10:52:28.717Z,1026.21
2017-04-14T10:53:28.715Z,1026.23
2017-04-14T10:54:28.713Z,1026.24
2017-04-14T10:55:28.710Z,1026.27
2017-04-14T10:56:28.710Z,1026.25
2017-04-14T10:57:28.707Z,1026.15
2017-04-14T10:58:28.704Z,1026.1
2017-04-14T10:59:28.701Z,1025.94
2017-04-14T11:00:28.700Z,1025.79
2017-04-14T11:01:28.699Z,1025.65
2017-04-14T11:02:28.699Z,1025.47
2017-04-14T11:03:28.694Z,1025.49
2017-04-14T11:04:28.691Z,1025.4
2017-04-14T11:05:28.691Z,1025.44
2017-04-14T11:06:28.687Z,1025.55
2017-04-14T11:07:28.686Z,1025.55
2017-04-14T11:08:28.685Z,1025.5
2017-04-14T11:09:28.683Z,1025.5
2017-04-14T11:10:28.680Z,1025.46
2017-04-14T11:11:28.679Z,1025.41
2017-04-14T11:12:28.677Z,1025.3
2017-04-14T11:13:28.676Z,1025.34
2017-04-14T11:14:28.674Z,1025.3
2017-04-14T11:15:28.672Z,1025.22
2017-04-14T11:16:28.671Z,1025.09
2017-04-14T11:17:28.714Z,1025.01
2017-04-14T11:18:28.668Z,1024.84
2017-04-14T11:19:28.667Z,1024.89
2017-04-14T11:20:28.666Z,1024.81
2017-04-14T11:21:28.664Z,1024.98
2017-04-14T11:22:28.663Z,1025
2017-04-14T11:23:28.662Z,1024.99
2017-04-14T11:24:28.661Z,1024.96
2017-04-14T11:25:28.662Z,1024.86
2017-04-14T11:26:28.658Z,1024.78
2017-04-14T11:27:28.660Z,1024.81
2017-04-14T11:28:28.656Z,1024.94
2017-04-14T11:29:28.655Z,1025.02
2017-04-14T11:30:28.655Z,1025.18
2017-04-14T11:31:28.655Z,1025.27
2017-04-14T11:32:28.652Z,1025.37
2017-04-14T11:33:28.652Z,1025.41
2017-04-14T11:34:28.650Z,1025.59
2017-04-14T11:35:28.650Z,1025.6
2017-04-14T11:36:28.649Z,1025.71
2017-04-14T11:37:28.647Z,1025.69
2017-04-14T11:38:28.647Z,1025.75
2017-04-14T11:39:28.645Z,1025.76
2017-04-14T11:40:28.643Z,1025.67
2017-04-14T11:41:28.643Z,1025.62
2017-04-14T11:42:28.642Z,1025.5
2017-04-14T11:43:28.640Z,1025.42
2017-04-14T11:44:28.639Z,1025.25
2017-04-14T11:45:28.637Z,1025.1
2017-04-14T11:46:28.636Z,1024.98
2017-04-14T11:47:28.634Z,1024.91
2017-04-14T11:48:28.633Z,1024.85
2017-04-14T11:49:28.632Z,1024.91
2017-04-14T11:50:28.630Z,1024.94
2017-04-14T11:51:28.630Z,1024.91
2017-04-14T11:52:28.628Z,1024.86
2017-04-14T11:53:28.631Z,1024.72
2017-04-14T11:54:28.625Z,1024.66
2017-04-14T11:55:28.629Z,1024.54
2017-04-14T11:56:28.624Z,1024.49
2017-04-14T11:57:28.622Z,1024.44
2017-04-14T11:58:28.622Z,1024.38
2017-04-14T11:59:28.621Z,1024.37
2017-04-14T12:00:28.620Z,1024.31
2017-04-14T12:01:28.622Z,1024.32
2017-04-14T12:02:28.618Z,1024.27
2017-04-14T12:03:28.618Z,1024.38
2017-04-14T12:04:28.617Z,1024.32
2017-04-14T12:05:28.616Z,1024.35
2017-04-14T12:06:28.616Z,1024.48
2017-04-14T12:07:28.615Z,1024.49
2017-04-14T12:08:28.614Z,1024.62
2017-04-14T12:09:28.614Z,1024.81
2017-04-14T12:10:28.613Z,1024.85
2017-04-14T12:11:28.614Z,1024.92